sensor_id;sensor_type;location;lat;lon;timestamp;P1;durP1;ratioP1;P2;durP2;ratioP2
13014;SDS011;6573;57.696;11.950;2022-11-14T00:01:22;1.17;;;0.97;;
13014;SDS011;6573;57.696;11.950;2022-11-14T00:03:51;1.80;;;1.10;;
13014;SDS011;6573;57.696;11.950;2022-11-14T00:06:19;1.80;;;0.93;;
13014;SDS011;6573;57.696;11.950;2022-11-14T00:08:49;3.07;;;1.00;;
13014;SDS011;6573;57.696;11.950;2022-11-14T00:11:17;1.83;;;0.90;;
13014;SDS011;6573;57.696;11.950;2022-11-14T00:13:45;1.27;;;1.00;;
13014;SDS011;6573;57.696;11.950;2022-11-14T00:16:13;1.07;;;0.77;;
13014;SDS011;6573;57.696;11.950;2022-11-14T00:18:41;0.80;;;0.80;;
13014;SDS011;6573;57.696;11.950;2022-11-14T00:21:10;1.03;;;0.93;;
13014;SDS011;6573;57.696;11.950;2022-11-14T00:23:39;0.60;;;0.60;;
13014;SDS011;6573;57.696;11.950;2022-11-14T00:26:08;1.03;;;0.80;;
13014;SDS011;6573;57.696;11.950;2022-11-14T00:28:37;2.00;;;0.80;;
13014;SDS011;6573;57.696;11.950;2022-11-14T00:31:05;1.13;;;0.70;;
13014;SDS011;6573;57.696;11.950;2022-11-14T00:33:34;0.80;;;0.80;;
13014;SDS011;6573;57.696;11.950;2022-11-14T00:36:04;1.37;;;0.83;;
13014;SDS011;6573;57.696;11.950;2022-11-14T00:38:32;0.80;;;0.70;;
13014;SDS011;6573;57.696;11.950;2022-11-14T00:41:00;0.73;;;0.70;;
13014;SDS011;6573;57.696;11.950;2022-11-14T00:43:30;0.70;;;0.70;;
13014;SDS011;6573;57.696;11.950;2022-11-14T00:45:58;1.53;;;0.60;;
13014;SDS011;6573;57.696;11.950;2022-11-14T00:48:27;1.80;;;0.73;;
13014;SDS011;6573;57.696;11.950;2022-11-14T00:50:55;1.33;;;0.90;;
13014;SDS011;6573;57.696;11.950;2022-11-14T00:53:24;0.80;;;0.80;;
13014;SDS011;6573;57.696;11.950;2022-11-14T00:55:52;1.47;;;0.80;;
13014;SDS011;6573;57.696;11.950;2022-11-14T00:58:20;3.17;;;1.00;;
13014;SDS011;6573;57.696;11.950;2022-11-14T01:00:50;0.93;;;0.70;;
13014;SDS011;6573;57.696;11.950;2022-11-14T01:03:19;2.20;;;0.70;;
13014;SDS011;6573;57.696;11.950;2022-11-14T01:05:48;0.67;;;0.67;;
13014;SDS011;6573;57.696;11.950;2022-11-14T01:08:18;3.33;;;0.80;;
13014;SDS011;6573;57.696;11.950;2022-11-14T01:10:47;0.77;;;0.77;;
13014;SDS011;6573;57.696;11.950;2022-11-14T01:13:17;1.37;;;1.00;;
13014;SDS011;6573;57.696;11.950;2022-11-14T01:15:47;0.70;;;0.70;;
13014;SDS011;6573;57.696;11.950;2022-11-14T01:18:19;3.03;;;0.80;;
13014;SDS011;6573;57.696;11.950;2022-11-14T01:20:48;0.80;;;0.77;;
13014;SDS011;6573;57.696;11.950;2022-11-14T01:23:16;1.97;;;1.03;;
13014;SDS011;6573;57.696;11.950;2022-11-14T01:25:47;3.77;;;0.80;;
13014;SDS011;6573;57.696;11.950;2022-11-14T01:28:16;1.30;;;0.80;;
13014;SDS011;6573;57.696;11.950;2022-11-14T01:30:46;1.67;;;0.90;;
13014;SDS011;6573;57.696;11.950;2022-11-14T01:33:14;1.70;;;0.83;;
13014;SDS011;6573;57.696;11.950;2022-11-14T01:35:46;0.70;;;0.70;;
13014;SDS011;6573;57.696;11.950;2022-11-14T01:38:17;2.17;;;0.67;;
13014;SDS011;6573;57.696;11.950;2022-11-14T01:40:46;1.50;;;0.90;;
13014;SDS011;6573;57.696;11.950;2022-11-14T01:43:24;1.13;;;0.60;;
13014;SDS011;6573;57.696;11.950;2022-11-14T01:45:55;2.10;;;0.90;;
13014;SDS011;6573;57.696;11.950;2022-11-14T01:48:26;2.20;;;1.10;;
13014;SDS011;6573;57.696;11.950;2022-11-14T01:51:01;0.90;;;0.80;;
13014;SDS011;6573;57.696;11.950;2022-11-14T01:53:36;1.63;;;0.70;;
13014;SDS011;6573;57.696;11.950;2022-11-14T01:56:07;1.83;;;0.97;;
13014;SDS011;6573;57.696;11.950;2022-11-14T01:58:41;1.23;;;0.80;;
13014;SDS011;6573;57.696;11.950;2022-11-14T02:01:14;1.00;;;0.60;;
13014;SDS011;6573;57.696;11.950;2022-11-14T02:03:43;2.53;;;0.70;;
13014;SDS011;6573;57.696;11.950;2022-11-14T02:06:16;1.20;;;0.80;;
13014;SDS011;6573;57.696;11.950;2022-11-14T02:08:47;1.53;;;0.60;;
13014;SDS011;6573;57.696;11.950;2022-11-14T02:11:16;1.00;;;0.60;;
13014;SDS011;6573;57.696;11.950;2022-11-14T02:13:44;0.40;;;0.40;;
13014;SDS011;6573;57.696;11.950;2022-11-14T02:16:13;0.67;;;0.60;;
13014;SDS011;6573;57.696;11.950;2022-11-14T02:18:41;0.60;;;0.60;;
13014;SDS011;6573;57.696;11.950;2022-11-14T02:21:11;1.60;;;0.70;;
13014;SDS011;6573;57.696;11.950;2022-11-14T02:23:39;0.90;;;0.50;;
13014;SDS011;6573;57.696;11.950;2022-11-14T02:26:07;1.33;;;0.63;;
13014;SDS011;6573;57.696;11.950;2022-11-14T02:28:36;1.20;;;0.50;;
13014;SDS011;6573;57.696;11.950;2022-11-14T02:31:07;1.30;;;0.50;;
13014;SDS011;6573;57.696;11.950;2022-11-14T02:33:35;0.40;;;0.40;;
13014;SDS011;6573;57.696;11.950;2022-11-14T02:36:07;0.50;;;0.40;;
13014;SDS011;6573;57.696;11.950;2022-11-14T02:38:37;1.10;;;0.50;;
13014;SDS011;6573;57.696;11.950;2022-11-14T02:41:05;1.40;;;0.40;;
13014;SDS011;6573;57.696;11.950;2022-11-14T02:43:34;0.53;;;0.50;;
13014;SDS011;6573;57.696;11.950;2022-11-14T02:46:02;0.83;;;0.40;;
13014;SDS011;6573;57.696;11.950;2022-11-14T02:48:31;1.17;;;0.60;;
13014;SDS011;6573;57.696;11.950;2022-11-14T02:50:59;0.93;;;0.40;;
13014;SDS011;6573;57.696;11.950;2022-11-14T02:53:27;0.20;;;0.20;;
13014;SDS011;6573;57.696;11.950;2022-11-14T02:55:57;0.67;;;0.40;;
13014;SDS011;6573;57.696;11.950;2022-11-14T02:58:25;0.30;;;0.30;;
13014;SDS011;6573;57.696;11.950;2022-11-14T03:00:54;0.67;;;0.40;;
13014;SDS011;6573;57.696;11.950;2022-11-14T03:03:42;2.50;;;0.40;;
13014;SDS011;6573;57.696;11.950;2022-11-14T03:06:11;1.67;;;0.40;;
13014;SDS011;6573;57.696;11.950;2022-11-14T03:08:39;1.90;;;0.30;;
13014;SDS011;6573;57.696;11.950;2022-11-14T03:11:09;0.33;;;0.33;;
13014;SDS011;6573;57.696;11.950;2022-11-14T03:13:37;0.47;;;0.30;;
13014;SDS011;6573;57.696;11.950;2022-11-14T03:16:06;0.30;;;0.30;;
13014;SDS011;6573;57.696;11.950;2022-11-14T03:18:36;1.07;;;0.30;;
13014;SDS011;6573;57.696;11.950;2022-11-14T03:21:05;0.77;;;0.47;;
13014;SDS011;6573;57.696;11.950;2022-11-14T03:23:36;2.37;;;0.50;;
13014;SDS011;6573;57.696;11.950;2022-11-14T03:26:05;1.90;;;0.40;;
13014;SDS011;6573;57.696;11.950;2022-11-14T03:28:39;1.20;;;0.30;;
13014;SDS011;6573;57.696;11.950;2022-11-14T03:31:09;0.50;;;0.50;;
13014;SDS011;6573;57.696;11.950;2022-11-14T03:33:39;0.83;;;0.40;;
13014;SDS011;6573;57.696;11.950;2022-11-14T03:36:07;0.63;;;0.40;;
13014;SDS011;6573;57.696;11.950;2022-11-14T03:38:37;1.27;;;0.33;;
13014;SDS011;6573;57.696;11.950;2022-11-14T03:41:05;0.40;;;0.40;;
13014;SDS011;6573;57.696;11.950;2022-11-14T03:43:34;0.30;;;0.30;;
13014;SDS011;6573;57.696;11.950;2022-11-14T03:46:04;1.57;;;0.40;;
13014;SDS011;6573;57.696;11.950;2022-11-14T03:48:37;0.60;;;0.40;;
13014;SDS011;6573;57.696;11.950;2022-11-14T03:51:05;0.60;;;0.47;;
13014;SDS011;6573;57.696;11.950;2022-11-14T03:53:33;0.53;;;0.53;;
13014;SDS011;6573;57.696;11.950;2022-11-14T03:56:04;0.73;;;0.50;;
13014;SDS011;6573;57.696;11.950;2022-11-14T03:58:38;0.50;;;0.50;;
13014;SDS011;6573;57.696;11.950;2022-11-14T04:01:08;0.40;;;0.40;;
13014;SDS011;6573;57.696;11.950;2022-11-14T04:03:36;1.30;;;0.60;;
13014;SDS011;6573;57.696;11.950;2022-11-14T04:06:05;0.80;;;0.40;;
13014;SDS011;6573;57.696;11.950;2022-11-14T04:08:33;1.10;;;0.40;;
13014;SDS011;6573;57.696;11.950;2022-11-14T04:11:04;0.47;;;0.47;;
13014;SDS011;6573;57.696;11.950;2022-11-14T04:13:32;1.47;;;0.40;;
13014;SDS011;6573;57.696;11.950;2022-11-14T04:16:01;1.80;;;0.63;;
13014;SDS011;6573;57.696;11.950;2022-11-14T04:18:31;0.70;;;0.70;;
13014;SDS011;6573;57.696;11.950;2022-11-14T04:20:59;1.43;;;0.60;;
13014;SDS011;6573;57.696;11.950;2022-11-14T04:23:27;1.07;;;0.60;;
13014;SDS011;6573;57.696;11.950;2022-11-14T04:25:56;0.50;;;0.50;;
13014;SDS011;6573;57.696;11.950;2022-11-14T04:28:24;1.47;;;0.60;;
13014;SDS011;6573;57.696;11.950;2022-11-14T04:30:53;0.90;;;0.60;;
13014;SDS011;6573;57.696;11.950;2022-11-14T04:33:21;1.37;;;0.70;;
13014;SDS011;6573;57.696;11.950;2022-11-14T04:35:50;1.13;;;0.50;;
13014;SDS011;6573;57.696;11.950;2022-11-14T04:38:19;0.57;;;0.57;;
13014;SDS011;6573;57.696;11.950;2022-11-14T04:40:47;0.50;;;0.50;;
13014;SDS011;6573;57.696;11.950;2022-11-14T04:43:17;2.77;;;0.70;;
13014;SDS011;6573;57.696;11.950;2022-11-14T04:45:46;1.73;;;0.40;;
13014;SDS011;6573;57.696;11.950;2022-11-14T04:48:14;0.30;;;0.30;;
13014;SDS011;6573;57.696;11.950;2022-11-14T04:50:43;0.60;;;0.40;;
13014;SDS011;6573;57.696;11.950;2022-11-14T04:53:14;1.33;;;0.30;;
13014;SDS011;6573;57.696;11.950;2022-11-14T04:55:42;0.53;;;0.30;;
13014;SDS011;6573;57.696;11.950;2022-11-14T04:58:11;0.40;;;0.40;;
13014;SDS011;6573;57.696;11.950;2022-11-14T05:00:40;1.77;;;0.50;;
13014;SDS011;6573;57.696;11.950;2022-11-14T05:03:08;0.20;;;0.20;;
13014;SDS011;6573;57.696;11.950;2022-11-14T05:05:38;0.90;;;0.47;;
13014;SDS011;6573;57.696;11.950;2022-11-14T05:08:07;0.73;;;0.30;;
13014;SDS011;6573;57.696;11.950;2022-11-14T05:10:41;0.50;;;0.40;;
13014;SDS011;6573;57.696;11.950;2022-11-14T05:13:12;0.87;;;0.37;;
13014;SDS011;6573;57.696;11.950;2022-11-14T05:15:40;1.97;;;0.40;;
13014;SDS011;6573;57.696;11.950;2022-11-14T05:18:08;0.30;;;0.30;;
13014;SDS011;6573;57.696;11.950;2022-11-14T05:20:37;0.50;;;0.50;;
13014;SDS011;6573;57.696;11.950;2022-11-14T05:23:05;0.40;;;0.20;;
13014;SDS011;6573;57.696;11.950;2022-11-14T05:25:33;0.77;;;0.40;;
13014;SDS011;6573;57.696;11.950;2022-11-14T05:28:03;0.30;;;0.30;;
13014;SDS011;6573;57.696;11.950;2022-11-14T05:30:33;1.80;;;0.50;;
13014;SDS011;6573;57.696;11.950;2022-11-14T05:33:01;0.67;;;0.67;;
13014;SDS011;6573;57.696;11.950;2022-11-14T05:35:30;0.30;;;0.30;;
13014;SDS011;6573;57.696;11.950;2022-11-14T05:37:59;0.40;;;0.40;;
13014;SDS011;6573;57.696;11.950;2022-11-14T05:40:27;1.20;;;0.40;;
13014;SDS011;6573;57.696;11.950;2022-11-14T05:42:56;1.97;;;0.40;;
13014;SDS011;6573;57.696;11.950;2022-11-14T05:45:25;0.40;;;0.40;;
13014;SDS011;6573;57.696;11.950;2022-11-14T05:47:54;1.00;;;0.50;;
13014;SDS011;6573;57.696;11.950;2022-11-14T05:50:22;1.70;;;0.50;;
13014;SDS011;6573;57.696;11.950;2022-11-14T05:52:51;1.67;;;1.53;;
13014;SDS011;6573;57.696;11.950;2022-11-14T05:55:19;1.23;;;0.50;;
13014;SDS011;6573;57.696;11.950;2022-11-14T05:57:50;0.30;;;0.30;;
13014;SDS011;6573;57.696;11.950;2022-11-14T06:00:18;0.40;;;0.40;;
13014;SDS011;6573;57.696;11.950;2022-11-14T06:02:48;4.50;;;0.53;;
13014;SDS011;6573;57.696;11.950;2022-11-14T06:05:19;0.90;;;0.60;;
13014;SDS011;6573;57.696;11.950;2022-11-14T06:07:47;0.30;;;0.30;;
13014;SDS011;6573;57.696;11.950;2022-11-14T06:10:23;1.00;;;0.57;;
13014;SDS011;6573;57.696;11.950;2022-11-14T06:12:51;0.40;;;0.40;;
13014;SDS011;6573;57.696;11.950;2022-11-14T06:15:19;1.27;;;0.50;;
13014;SDS011;6573;57.696;11.950;2022-11-14T06:17:50;0.43;;;0.43;;
13014;SDS011;6573;57.696;11.950;2022-11-14T06:20:19;0.43;;;0.40;;
13014;SDS011;6573;57.696;11.950;2022-11-14T06:22:47;3.07;;;0.40;;
13014;SDS011;6573;57.696;11.950;2022-11-14T06:25:18;0.77;;;0.30;;
13014;SDS011;6573;57.696;11.950;2022-11-14T06:27:46;0.60;;;0.60;;
13014;SDS011;6573;57.696;11.950;2022-11-14T06:30:14;0.83;;;0.50;;
13014;SDS011;6573;57.696;11.950;2022-11-14T06:32:43;1.17;;;0.50;;
13014;SDS011;6573;57.696;11.950;2022-11-14T06:35:12;0.40;;;0.40;;
13014;SDS011;6573;57.696;11.950;2022-11-14T06:37:41;1.67;;;0.70;;
13014;SDS011;6573;57.696;11.950;2022-11-14T06:40:10;1.90;;;0.43;;
13014;SDS011;6573;57.696;11.950;2022-11-14T06:42:38;0.50;;;0.50;;
13014;SDS011;6573;57.696;11.950;2022-11-14T06:45:06;2.00;;;0.40;;
13014;SDS011;6573;57.696;11.950;2022-11-14T06:47:35;1.07;;;0.60;;
13014;SDS011;6573;57.696;11.950;2022-11-14T06:50:04;0.77;;;0.50;;
13014;SDS011;6573;57.696;11.950;2022-11-14T06:52:34;1.13;;;0.50;;
13014;SDS011;6573;57.696;11.950;2022-11-14T06:55:03;0.80;;;0.60;;
13014;SDS011;6573;57.696;11.950;2022-11-14T06:57:31;0.63;;;0.50;;
13014;SDS011;6573;57.696;11.950;2022-11-14T07:00:00;2.77;;;0.60;;
13014;SDS011;6573;57.696;11.950;2022-11-14T07:02:28;1.27;;;1.10;;
13014;SDS011;6573;57.696;11.950;2022-11-14T07:04:56;2.30;;;1.50;;
13014;SDS011;6573;57.696;11.950;2022-11-14T07:07:25;0.50;;;0.40;;
13014;SDS011;6573;57.696;11.950;2022-11-14T07:09:55;0.43;;;0.40;;
13014;SDS011;6573;57.696;11.950;2022-11-14T07:12:24;0.40;;;0.27;;
13014;SDS011;6573;57.696;11.950;2022-11-14T07:14:52;0.20;;;0.20;;
13014;SDS011;6573;57.696;11.950;2022-11-14T07:17:20;0.50;;;0.30;;
13014;SDS011;6573;57.696;11.950;2022-11-14T07:19:56;2.73;;;0.40;;
13014;SDS011;6573;57.696;11.950;2022-11-14T07:22:24;0.40;;;0.40;;
13014;SDS011;6573;57.696;11.950;2022-11-14T07:24:52;0.40;;;0.40;;
13014;SDS011;6573;57.696;11.950;2022-11-14T07:27:22;1.00;;;0.60;;
13014;SDS011;6573;57.696;11.950;2022-11-14T07:29:50;1.67;;;0.63;;
13014;SDS011;6573;57.696;11.950;2022-11-14T07:32:18;0.50;;;0.43;;
13014;SDS011;6573;57.696;11.950;2022-11-14T07:34:47;0.83;;;0.40;;
13014;SDS011;6573;57.696;11.950;2022-11-14T07:37:15;0.50;;;0.50;;
13014;SDS011;6573;57.696;11.950;2022-11-14T07:39:43;0.40;;;0.40;;
13014;SDS011;6573;57.696;11.950;2022-11-14T07:42:12;1.40;;;0.70;;
13014;SDS011;6573;57.696;11.950;2022-11-14T07:44:42;2.17;;;0.43;;
13014;SDS011;6573;57.696;11.950;2022-11-14T07:47:10;1.47;;;0.50;;
13014;SDS011;6573;57.696;11.950;2022-11-14T07:49:38;0.43;;;0.43;;
13014;SDS011;6573;57.696;11.950;2022-11-14T07:52:06;2.10;;;0.50;;
13014;SDS011;6573;57.696;11.950;2022-11-14T07:54:34;0.53;;;0.53;;
13014;SDS011;6573;57.696;11.950;2022-11-14T07:57:03;1.83;;;0.90;;
13014;SDS011;6573;57.696;11.950;2022-11-14T07:59:32;0.40;;;0.40;;
13014;SDS011;6573;57.696;11.950;2022-11-14T08:02:02;0.13;;;0.13;;
13014;SDS011;6573;57.696;11.950;2022-11-14T08:04:31;0.30;;;0.30;;
13014;SDS011;6573;57.696;11.950;2022-11-14T08:07:00;0.30;;;0.23;;
13014;SDS011;6573;57.696;11.950;2022-11-14T08:09:28;1.80;;;0.40;;
13014;SDS011;6573;57.696;11.950;2022-11-14T08:11:56;0.50;;;0.47;;
13014;SDS011;6573;57.696;11.950;2022-11-14T08:14:25;0.40;;;0.40;;
13014;SDS011;6573;57.696;11.950;2022-11-14T08:16:53;0.87;;;0.40;;
13014;SDS011;6573;57.696;11.950;2022-11-14T08:19:23;1.47;;;0.70;;
13014;SDS011;6573;57.696;11.950;2022-11-14T08:21:51;0.70;;;0.60;;
13014;SDS011;6573;57.696;11.950;2022-11-14T08:24:19;1.10;;;0.90;;
13014;SDS011;6573;57.696;11.950;2022-11-14T08:26:47;1.73;;;0.80;;
13014;SDS011;6573;57.696;11.950;2022-11-14T08:29:16;2.33;;;0.80;;
13014;SDS011;6573;57.696;11.950;2022-11-14T08:31:44;0.80;;;0.60;;
13014;SDS011;6573;57.696;11.950;2022-11-14T08:34:13;0.60;;;0.60;;
13014;SDS011;6573;57.696;11.950;2022-11-14T08:36:42;1.17;;;0.60;;
13014;SDS011;6573;57.696;11.950;2022-11-14T08:39:11;1.43;;;0.70;;
13014;SDS011;6573;57.696;11.950;2022-11-14T08:41:39;1.20;;;0.70;;
13014;SDS011;6573;57.696;11.950;2022-11-14T08:44:07;0.70;;;0.50;;
13014;SDS011;6573;57.696;11.950;2022-11-14T08:46:38;1.03;;;0.70;;
13014;SDS011;6573;57.696;11.950;2022-11-14T08:49:06;5.07;;;0.90;;
13014;SDS011;6573;57.696;11.950;2022-11-14T08:51:34;1.63;;;0.80;;
13014;SDS011;6573;57.696;11.950;2022-11-14T08:54:04;1.10;;;1.00;;
13014;SDS011;6573;57.696;11.950;2022-11-14T08:56:33;2.53;;;1.00;;
13014;SDS011;6573;57.696;11.950;2022-11-14T08:59:01;2.23;;;1.20;;
13014;SDS011;6573;57.696;11.950;2022-11-14T09:01:30;2.50;;;1.20;;
13014;SDS011;6573;57.696;11.950;2022-11-14T09:03:59;3.10;;;1.00;;
13014;SDS011;6573;57.696;11.950;2022-11-14T09:06:28;1.53;;;1.10;;
13014;SDS011;6573;57.696;11.950;2022-11-14T09:08:56;4.13;;;0.97;;
13014;SDS011;6573;57.696;11.950;2022-11-14T09:11:26;1.10;;;0.90;;
13014;SDS011;6573;57.696;11.950;2022-11-14T09:13:55;2.07;;;0.90;;
13014;SDS011;6573;57.696;11.950;2022-11-14T09:16:23;1.53;;;0.97;;
13014;SDS011;6573;57.696;11.950;2022-11-14T09:18:51;1.20;;;1.10;;
13014;SDS011;6573;57.696;11.950;2022-11-14T09:21:19;2.03;;;0.90;;
13014;SDS011;6573;57.696;11.950;2022-11-14T09:23:47;1.37;;;1.10;;
13014;SDS011;6573;57.696;11.950;2022-11-14T09:26:16;2.50;;;1.33;;
13014;SDS011;6573;57.696;11.950;2022-11-14T09:28:46;3.47;;;1.57;;
13014;SDS011;6573;57.696;11.950;2022-11-14T09:31:15;4.17;;;1.40;;
13014;SDS011;6573;57.696;11.950;2022-11-14T09:33:43;3.37;;;1.23;;
13014;SDS011;6573;57.696;11.950;2022-11-14T09:36:11;3.10;;;1.97;;
13014;SDS011;6573;57.696;11.950;2022-11-14T09:38:41;3.50;;;1.90;;
13014;SDS011;6573;57.696;11.950;2022-11-14T09:41:15;3.00;;;1.77;;
13014;SDS011;6573;57.696;11.950;2022-11-14T09:44:04;3.37;;;1.87;;
13014;SDS011;6573;57.696;11.950;2022-11-14T09:46:51;1.90;;;1.80;;
13014;SDS011;6573;57.696;11.950;2022-11-14T09:49:24;3.03;;;2.10;;
13014;SDS011;6573;57.696;11.950;2022-11-14T09:51:59;2.33;;;1.93;;
13014;SDS011;6573;57.696;11.950;2022-11-14T09:54:39;2.73;;;1.67;;
13014;SDS011;6573;57.696;11.950;2022-11-14T09:57:14;1.93;;;1.60;;
13014;SDS011;6573;57.696;11.950;2022-11-14T09:59:45;3.53;;;2.17;;
13014;SDS011;6573;57.696;11.950;2022-11-14T10:02:25;2.10;;;1.50;;
13014;SDS011;6573;57.696;11.950;2022-11-14T10:05:08;2.67;;;1.90;;
13014;SDS011;6573;57.696;11.950;2022-11-14T10:08:18;5.43;;;2.57;;
13014;SDS011;6573;57.696;11.950;2022-11-14T10:11:00;2.90;;;2.07;;
13014;SDS011;6573;57.696;11.950;2022-11-14T10:13:37;2.10;;;1.90;;
13014;SDS011;6573;57.696;11.950;2022-11-14T10:16:21;1.77;;;1.67;;
13014;SDS011;6573;57.696;11.950;2022-11-14T10:18:58;3.87;;;2.23;;
13014;SDS011;6573;57.696;11.950;2022-11-14T10:21:39;2.53;;;1.50;;
13014;SDS011;6573;57.696;11.950;2022-11-14T10:24:21;10.97;;;2.10;;
13014;SDS011;6573;57.696;11.950;2022-11-14T10:27:01;2.60;;;2.37;;
13014;SDS011;6573;57.696;11.950;2022-11-14T10:29:38;3.47;;;2.10;;
13014;SDS011;6573;57.696;11.950;2022-11-14T10:32:24;7.00;;;1.80;;
13014;SDS011;6573;57.696;11.950;2022-11-14T10:35:01;4.30;;;1.90;;
13014;SDS011;6573;57.696;11.950;2022-11-14T10:37:36;3.23;;;1.70;;
13014;SDS011;6573;57.696;11.950;2022-11-14T10:40:13;4.13;;;1.80;;
13014;SDS011;6573;57.696;11.950;2022-11-14T10:42:45;7.00;;;2.13;;
13014;SDS011;6573;57.696;11.950;2022-11-14T10:45:17;4.13;;;1.70;;
13014;SDS011;6573;57.696;11.950;2022-11-14T10:47:53;5.20;;;1.80;;
13014;SDS011;6573;57.696;11.950;2022-11-14T10:50:26;5.53;;;1.70;;
13014;SDS011;6573;57.696;11.950;2022-11-14T10:55:56;8.83;;;2.70;;
13014;SDS011;6573;57.696;11.950;2022-11-14T10:58:30;2.30;;;1.60;;
13014;SDS011;6573;57.696;11.950;2022-11-14T11:04:13;7.90;;;2.83;;
13014;SDS011;6573;57.696;11.950;2022-11-14T11:06:47;3.77;;;1.80;;
13014;SDS011;6573;57.696;11.950;2022-11-14T11:09:17;6.30;;;2.30;;
13014;SDS011;6573;57.696;11.950;2022-11-14T11:12:14;4.00;;;1.90;;
13014;SDS011;6573;57.696;11.950;2022-11-14T11:14:43;5.47;;;2.37;;
13014;SDS011;6573;57.696;11.950;2022-11-14T11:17:17;4.53;;;2.40;;
13014;SDS011;6573;57.696;11.950;2022-11-14T11:19:48;5.20;;;2.07;;
13014;SDS011;6573;57.696;11.950;2022-11-14T11:22:33;4.33;;;2.23;;
13014;SDS011;6573;57.696;11.950;2022-11-14T11:25:12;4.37;;;2.00;;
13014;SDS011;6573;57.696;11.950;2022-11-14T11:28:02;4.77;;;2.43;;
13014;SDS011;6573;57.696;11.950;2022-11-14T11:30:32;4.13;;;2.10;;
13014;SDS011;6573;57.696;11.950;2022-11-14T11:33:13;6.23;;;2.30;;
13014;SDS011;6573;57.696;11.950;2022-11-14T11:35:45;6.47;;;2.50;;
13014;SDS011;6573;57.696;11.950;2022-11-14T11:38:16;4.57;;;2.60;;
13014;SDS011;6573;57.696;11.950;2022-11-14T11:40:47;4.80;;;2.40;;
13014;SDS011;6573;57.696;11.950;2022-11-14T11:43:24;3.83;;;2.10;;
13014;SDS011;6573;57.696;11.950;2022-11-14T11:46:18;6.23;;;2.20;;
13014;SDS011;6573;57.696;11.950;2022-11-14T11:48:58;7.00;;;3.40;;
13014;SDS011;6573;57.696;11.950;2022-11-14T11:51:31;3.50;;;2.40;;
13014;SDS011;6573;57.696;11.950;2022-11-14T11:54:04;5.20;;;2.53;;
13014;SDS011;6573;57.696;11.950;2022-11-14T11:56:40;4.43;;;2.43;;
13014;SDS011;6573;57.696;11.950;2022-11-14T11:59:16;3.33;;;2.57;;
13014;SDS011;6573;57.696;11.950;2022-11-14T12:01:53;3.70;;;2.30;;
13014;SDS011;6573;57.696;11.950;2022-11-14T12:04:22;3.33;;;2.60;;
13014;SDS011;6573;57.696;11.950;2022-11-14T12:06:53;8.90;;;2.40;;
13014;SDS011;6573;57.696;11.950;2022-11-14T12:09:26;4.40;;;2.33;;
13014;SDS011;6573;57.696;11.950;2022-11-14T12:12:20;6.00;;;2.80;;
13014;SDS011;6573;57.696;11.950;2022-11-14T12:14:58;6.57;;;2.80;;
13014;SDS011;6573;57.696;11.950;2022-11-14T12:20:40;8.63;;;3.00;;
13014;SDS011;6573;57.696;11.950;2022-11-14T12:23:29;4.87;;;2.73;;
13014;SDS011;6573;57.696;11.950;2022-11-14T12:26:27;5.27;;;2.63;;
13014;SDS011;6573;57.696;11.950;2022-11-14T12:29:15;9.20;;;3.53;;
13014;SDS011;6573;57.696;11.950;2022-11-14T12:32:02;3.93;;;2.80;;
13014;SDS011;6573;57.696;11.950;2022-11-14T12:34:33;3.67;;;3.10;;
13014;SDS011;6573;57.696;11.950;2022-11-14T12:37:07;6.10;;;3.53;;
13014;SDS011;6573;57.696;11.950;2022-11-14T12:39:44;4.20;;;2.87;;
13014;SDS011;6573;57.696;11.950;2022-11-14T12:42:23;4.00;;;2.97;;
13014;SDS011;6573;57.696;11.950;2022-11-14T12:44:51;3.30;;;2.93;;
13014;SDS011;6573;57.696;11.950;2022-11-14T12:47:20;6.53;;;3.03;;
13014;SDS011;6573;57.696;11.950;2022-11-14T12:52:54;6.23;;;3.07;;
13014;SDS011;6573;57.696;11.950;2022-11-14T12:58:46;4.23;;;2.00;;
13014;SDS011;6573;57.696;11.950;2022-11-14T13:01:36;3.63;;;2.70;;
13014;SDS011;6573;57.696;11.950;2022-11-14T13:04:20;4.50;;;2.87;;
13014;SDS011;6573;57.696;11.950;2022-11-14T13:07:05;4.67;;;3.23;;
13014;SDS011;6573;57.696;11.950;2022-11-14T13:09:53;4.93;;;3.17;;
13014;SDS011;6573;57.696;11.950;2022-11-14T13:12:31;5.83;;;3.60;;
13014;SDS011;6573;57.696;11.950;2022-11-14T13:15:21;4.23;;;3.83;;
13014;SDS011;6573;57.696;11.950;2022-11-14T13:18:21;3.77;;;3.00;;
13014;SDS011;6573;57.696;11.950;2022-11-14T13:21:19;3.53;;;3.03;;
13014;SDS011;6573;57.696;11.950;2022-11-14T13:24:11;5.80;;;3.17;;
13014;SDS011;6573;57.696;11.950;2022-11-14T13:26:43;8.00;;;3.30;;
13014;SDS011;6573;57.696;11.950;2022-11-14T13:35:28;4.03;;;2.77;;
13014;SDS011;6573;57.696;11.950;2022-11-14T13:38:09;4.17;;;3.57;;
13014;SDS011;6573;57.696;11.950;2022-11-14T13:41:04;4.33;;;2.43;;
13014;SDS011;6573;57.696;11.950;2022-11-14T13:43:54;4.50;;;2.90;;
13014;SDS011;6573;57.696;11.950;2022-11-14T13:46:37;5.00;;;2.37;;
13014;SDS011;6573;57.696;11.950;2022-11-14T13:49:27;5.07;;;3.10;;
13014;SDS011;6573;57.696;11.950;2022-11-14T13:52:06;8.20;;;2.90;;
13014;SDS011;6573;57.696;11.950;2022-11-14T13:54:34;3.90;;;3.30;;
13014;SDS011;6573;57.696;11.950;2022-11-14T13:57:07;4.93;;;3.70;;
13014;SDS011;6573;57.696;11.950;2022-11-14T13:59:45;2.93;;;2.60;;
13014;SDS011;6573;57.696;11.950;2022-11-14T14:02:37;4.67;;;3.57;;
13014;SDS011;6573;57.696;11.950;2022-11-14T14:05:26;5.47;;;3.20;;
13014;SDS011;6573;57.696;11.950;2022-11-14T14:08:04;8.93;;;3.20;;
13014;SDS011;6573;57.696;11.950;2022-11-14T14:10:49;7.83;;;3.10;;
13014;SDS011;6573;57.696;11.950;2022-11-14T14:13:30;3.93;;;3.10;;
13014;SDS011;6573;57.696;11.950;2022-11-14T14:16:14;6.20;;;2.97;;
13014;SDS011;6573;57.696;11.950;2022-11-14T14:18:53;4.03;;;3.10;;
13014;SDS011;6573;57.696;11.950;2022-11-14T14:21:36;5.43;;;3.37;;
13014;SDS011;6573;57.696;11.950;2022-11-14T14:24:27;5.07;;;3.10;;
13014;SDS011;6573;57.696;11.950;2022-11-14T14:27:09;8.47;;;4.30;;
13014;SDS011;6573;57.696;11.950;2022-11-14T14:29:47;5.40;;;3.77;;
13014;SDS011;6573;57.696;11.950;2022-11-14T14:32:23;5.63;;;2.93;;
13014;SDS011;6573;57.696;11.950;2022-11-14T14:34:52;5.43;;;3.30;;
13014;SDS011;6573;57.696;11.950;2022-11-14T14:37:24;5.87;;;3.53;;
13014;SDS011;6573;57.696;11.950;2022-11-14T14:39:54;4.13;;;3.20;;
13014;SDS011;6573;57.696;11.950;2022-11-14T14:42:24;3.93;;;3.07;;
13014;SDS011;6573;57.696;11.950;2022-11-14T14:45:00;6.33;;;3.10;;
13014;SDS011;6573;57.696;11.950;2022-11-14T14:47:32;9.63;;;3.13;;
13014;SDS011;6573;57.696;11.950;2022-11-14T14:50:05;5.13;;;3.10;;
13014;SDS011;6573;57.696;11.950;2022-11-14T14:52:56;3.53;;;3.20;;
13014;SDS011;6573;57.696;11.950;2022-11-14T14:55:26;3.70;;;3.00;;
13014;SDS011;6573;57.696;11.950;2022-11-14T14:58:11;4.10;;;3.50;;
13014;SDS011;6573;57.696;11.950;2022-11-14T15:00:49;6.13;;;3.90;;
13014;SDS011;6573;57.696;11.950;2022-11-14T15:03:19;4.47;;;3.83;;
13014;SDS011;6573;57.696;11.950;2022-11-14T15:05:56;6.13;;;3.70;;
13014;SDS011;6573;57.696;11.950;2022-11-14T15:08:26;5.60;;;3.60;;
13014;SDS011;6573;57.696;11.950;2022-11-14T15:10:58;7.03;;;3.70;;
13014;SDS011;6573;57.696;11.950;2022-11-14T15:13:27;7.00;;;3.93;;
13014;SDS011;6573;57.696;11.950;2022-11-14T15:15:57;4.90;;;3.80;;
13014;SDS011;6573;57.696;11.950;2022-11-14T15:18:26;6.60;;;3.47;;
13014;SDS011;6573;57.696;11.950;2022-11-14T15:21:05;6.50;;;3.63;;
13014;SDS011;6573;57.696;11.950;2022-11-14T15:23:36;9.77;;;4.07;;
13014;SDS011;6573;57.696;11.950;2022-11-14T15:26:10;7.23;;;3.70;;
13014;SDS011;6573;57.696;11.950;2022-11-14T15:28:41;4.43;;;3.40;;
13014;SDS011;6573;57.696;11.950;2022-11-14T15:31:14;5.23;;;3.30;;
13014;SDS011;6573;57.696;11.950;2022-11-14T15:33:44;9.93;;;3.33;;
13014;SDS011;6573;57.696;11.950;2022-11-14T15:36:13;5.13;;;3.50;;
13014;SDS011;6573;57.696;11.950;2022-11-14T15:38:58;7.53;;;3.57;;
13014;SDS011;6573;57.696;11.950;2022-11-14T15:41:34;6.60;;;3.40;;